sensor_id;sensor_type;location;lat;lon;timestamp;P1;durP1;ratioP1;P2;durP2;ratioP2
22040;SDS011;11184;52.444;13.578;2023-07-20T00:02:19;8.50;;;5.53;;
22040;SDS011;11184;52.444;13.578;2023-07-20T00:05:04;5.22;;;4.82;;
22040;SDS011;11184;52.444;13.578;2023-07-20T00:07:49;6.28;;;5.80;;
22040;SDS011;11184;52.444;13.578;2023-07-20T00:10:35;8.05;;;5.20;;
22040;SDS011;11184;52.444;13.578;2023-07-20T00:13:20;5.22;;;4.82;;
22040;SDS011;11184;52.444;13.578;2023-07-20T00:16:04;8.45;;;5.90;;
22040;SDS011;11184;52.444;13.578;2023-07-20T00:18:49;6.28;;;4.70;;
22040;SDS011;11184;52.444;13.578;2023-07-20T00:21:33;7.57;;;5.07;;
22040;SDS011;11184;52.444;13.578;2023-07-20T00:24:18;6.32;;;5.75;;
22040;SDS011;11184;52.444;13.578;2023-07-20T00:27:02;6.32;;;5.70;;
22040;SDS011;11184;52.444;13.578;2023-07-20T00:29:47;8.02;;;5.72;;
22040;SDS011;11184;52.444;13.578;2023-07-20T00:32:32;7.85;;;6.00;;
22040;SDS011;11184;52.444;13.578;2023-07-20T00:35:16;10.35;;;6.47;;
22040;SDS011;11184;52.444;13.578;2023-07-20T00:38:01;6.90;;;5.72;;
22040;SDS011;11184;52.444;13.578;2023-07-20T00:40:45;9.00;;;6.03;;
22040;SDS011;11184;52.444;13.578;2023-07-20T00:43:32;6.88;;;6.22;;
22040;SDS011;11184;52.444;13.578;2023-07-20T00:46:16;6.68;;;5.97;;
22040;SDS011;11184;52.444;13.578;2023-07-20T00:49:01;7.65;;;6.53;;
22040;SDS011;11184;52.444;13.578;2023-07-20T00:51:46;7.45;;;6.32;;
22040;SDS011;11184;52.444;13.578;2023-07-20T00:54:32;6.70;;;6.20;;
22040;SDS011;11184;52.444;13.578;2023-07-20T00:57:17;7.68;;;7.10;;
22040;SDS011;11184;52.444;13.578;2023-07-20T01:00:03;7.78;;;7.00;;
22040;SDS011;11184;52.444;13.578;2023-07-20T01:02:48;9.13;;;8.23;;
22040;SDS011;11184;52.444;13.578;2023-07-20T01:05:36;7.70;;;7.10;;
22040;SDS011;11184;52.444;13.578;2023-07-20T01:08:33;7.57;;;6.95;;
22040;SDS011;11184;52.444;13.578;2023-07-20T01:11:33;8.10;;;7.43;;
22040;SDS011;11184;52.444;13.578;2023-07-20T01:14:20;8.95;;;8.18;;
22040;SDS011;11184;52.444;13.578;2023-07-20T01:17:06;8.40;;;7.80;;
22040;SDS011;11184;52.444;13.578;2023-07-20T01:19:51;9.13;;;8.40;;
22040;SDS011;11184;52.444;13.578;2023-07-20T01:25:50;7.75;;;7.22;;
22040;SDS011;11184;52.444;13.578;2023-07-20T01:31:45;9.45;;;8.20;;
22040;SDS011;11184;52.444;13.578;2023-07-20T01:34:31;9.63;;;8.77;;
22040;SDS011;11184;52.444;13.578;2023-07-20T01:37:16;9.05;;;8.35;;
22040;SDS011;11184;52.444;13.578;2023-07-20T01:40:03;9.02;;;8.20;;
22040;SDS011;11184;52.444;13.578;2023-07-20T01:42:48;10.95;;;8.23;;
22040;SDS011;11184;52.444;13.578;2023-07-20T01:45:33;11.60;;;9.18;;
22040;SDS011;11184;52.444;13.578;2023-07-20T01:48:18;9.13;;;8.40;;
22040;SDS011;11184;52.444;13.578;2023-07-20T01:51:02;10.18;;;9.10;;
22040;SDS011;11184;52.444;13.578;2023-07-20T01:53:47;9.77;;;9.07;;
22040;SDS011;11184;52.444;13.578;2023-07-20T01:56:31;10.10;;;9.10;;
22040;SDS011;11184;52.444;13.578;2023-07-20T01:59:16;10.75;;;9.48;;
22040;SDS011;11184;52.444;13.578;2023-07-20T02:02:01;9.35;;;8.45;;
22040;SDS011;11184;52.444;13.578;2023-07-20T02:04:46;9.57;;;8.77;;
22040;SDS011;11184;52.444;13.578;2023-07-20T02:07:30;9.07;;;8.35;;
22040;SDS011;11184;52.444;13.578;2023-07-20T02:10:15;13.05;;;8.68;;
22040;SDS011;11184;52.444;13.578;2023-07-20T02:13:00;10.43;;;9.35;;
22040;SDS011;11184;52.444;13.578;2023-07-20T02:15:44;8.88;;;8.23;;
22040;SDS011;11184;52.444;13.578;2023-07-20T02:18:30;9.18;;;8.38;;
22040;SDS011;11184;52.444;13.578;2023-07-20T02:21:15;9.38;;;8.43;;
22040;SDS011;11184;52.444;13.578;2023-07-20T02:24:00;8.35;;;7.57;;
22040;SDS011;11184;52.444;13.578;2023-07-20T02:26:44;9.52;;;8.63;;
22040;SDS011;11184;52.444;13.578;2023-07-20T02:29:29;8.68;;;8.02;;
22040;SDS011;11184;52.444;13.578;2023-07-20T02:32:14;9.07;;;8.38;;
22040;SDS011;11184;52.444;13.578;2023-07-20T02:34:58;8.77;;;8.05;;
22040;SDS011;11184;52.444;13.578;2023-07-20T02:37:43;8.70;;;7.97;;
22040;SDS011;11184;52.444;13.578;2023-07-20T02:40:28;9.20;;;8.60;;
22040;SDS011;11184;52.444;13.578;2023-07-20T02:43:13;9.48;;;8.77;;
22040;SDS011;11184;52.444;13.578;2023-07-20T02:45:57;10.43;;;9.52;;
22040;SDS011;11184;52.444;13.578;2023-07-20T02:48:42;9.93;;;8.82;;
22040;SDS011;11184;52.444;13.578;2023-07-20T02:51:26;9.98;;;9.27;;
22040;SDS011;11184;52.444;13.578;2023-07-20T02:54:11;9.77;;;9.18;;
22040;SDS011;11184;52.444;13.578;2023-07-20T02:56:56;10.85;;;9.80;;
22040;SDS011;11184;52.444;13.578;2023-07-20T02:59:41;10.43;;;9.52;;
22040;SDS011;11184;52.444;13.578;2023-07-20T03:02:25;10.90;;;10.00;;
22040;SDS011;11184;52.444;13.578;2023-07-20T03:05:10;8.82;;;8.23;;
22040;SDS011;11184;52.444;13.578;2023-07-20T03:07:57;9.57;;;8.88;;
22040;SDS011;11184;52.444;13.578;2023-07-20T03:10:42;9.57;;;8.32;;
22040;SDS011;11184;52.444;13.578;2023-07-20T03:13:27;9.95;;;8.98;;
22040;SDS011;11184;52.444;13.578;2023-07-20T03:16:12;8.70;;;8.10;;
22040;SDS011;11184;52.444;13.578;2023-07-20T03:18:59;10.63;;;9.32;;
22040;SDS011;11184;52.444;13.578;2023-07-20T03:21:47;11.98;;;11.15;;
22040;SDS011;11184;52.444;13.578;2023-07-20T03:24:32;12.05;;;10.80;;
22040;SDS011;11184;52.444;13.578;2023-07-20T03:27:16;14.15;;;13.02;;
22040;SDS011;11184;52.444;13.578;2023-07-20T03:30:01;14.00;;;12.85;;
22040;SDS011;11184;52.444;13.578;2023-07-20T03:32:45;14.45;;;13.15;;
22040;SDS011;11184;52.444;13.578;2023-07-20T03:35:30;13.82;;;12.68;;
22040;SDS011;11184;52.444;13.578;2023-07-20T03:38:15;14.07;;;12.70;;
22040;SDS011;11184;52.444;13.578;2023-07-20T03:41:00;14.65;;;13.48;;
22040;SDS011;11184;52.444;13.578;2023-07-20T03:43:44;18.02;;;16.58;;
22040;SDS011;11184;52.444;13.578;2023-07-20T03:46:30;18.77;;;17.05;;
22040;SDS011;11184;52.444;13.578;2023-07-20T03:49:15;18.27;;;16.98;;
22040;SDS011;11184;52.444;13.578;2023-07-20T03:52:00;16.58;;;15.13;;
22040;SDS011;11184;52.444;13.578;2023-07-20T03:54:46;20.02;;;18.13;;
22040;SDS011;11184;52.444;13.578;2023-07-20T03:57:31;19.42;;;18.00;;
22040;SDS011;11184;52.444;13.578;2023-07-20T04:00:17;22.30;;;20.55;;
22040;SDS011;11184;52.444;13.578;2023-07-20T04:03:02;19.20;;;17.80;;
22040;SDS011;11184;52.444;13.578;2023-07-20T04:05:46;19.88;;;18.48;;
22040;SDS011;11184;52.444;13.578;2023-07-20T04:08:31;18.63;;;17.25;;
22040;SDS011;11184;52.444;13.578;2023-07-20T04:11:16;16.92;;;15.60;;
22040;SDS011;11184;52.444;13.578;2023-07-20T04:14:00;16.85;;;15.48;;
22040;SDS011;11184;52.444;13.578;2023-07-20T04:16:46;16.75;;;15.45;;
22040;SDS011;11184;52.444;13.578;2023-07-20T04:19:31;16.60;;;15.02;;
22040;SDS011;11184;52.444;13.578;2023-07-20T04:22:15;14.82;;;13.68;;
22040;SDS011;11184;52.444;13.578;2023-07-20T04:25:00;15.25;;;13.85;;
22040;SDS011;11184;52.444;13.578;2023-07-20T04:27:45;14.48;;;13.38;;
22040;SDS011;11184;52.444;13.578;2023-07-20T04:30:29;12.77;;;11.68;;
22040;SDS011;11184;52.444;13.578;2023-07-20T04:33:14;14.18;;;12.52;;
22040;SDS011;11184;52.444;13.578;2023-07-20T04:35:58;14.23;;;13.02;;
22040;SDS011;11184;52.444;13.578;2023-07-20T04:38:43;13.98;;;13.10;;
22040;SDS011;11184;52.444;13.578;2023-07-20T04:41:28;15.90;;;14.65;;
22040;SDS011;11184;52.444;13.578;2023-07-20T04:44:13;15.65;;;14.20;;
22040;SDS011;11184;52.444;13.578;2023-07-20T04:46:58;15.77;;;14.35;;
22040;SDS011;11184;52.444;13.578;2023-07-20T04:49:42;19.10;;;17.10;;
22040;SDS011;11184;52.444;13.578;2023-07-20T04:52:27;20.08;;;18.10;;
22040;SDS011;11184;52.444;13.578;2023-07-20T04:55:12;22.92;;;20.52;;
22040;SDS011;11184;52.444;13.578;2023-07-20T04:57:56;17.65;;;16.00;;
22040;SDS011;11184;52.444;13.578;2023-07-20T05:00:41;16.45;;;14.82;;
22040;SDS011;11184;52.444;13.578;2023-07-20T05:03:25;11.15;;;10.35;;
22040;SDS011;11184;52.444;13.578;2023-07-20T05:06:10;12.07;;;10.70;;
22040;SDS011;11184;52.444;13.578;2023-07-20T05:08:56;12.70;;;11.80;;
22040;SDS011;11184;52.444;13.578;2023-07-20T05:11:41;10.63;;;9.65;;
22040;SDS011;11184;52.444;13.578;2023-07-20T05:14:25;12.00;;;11.00;;
22040;SDS011;11184;52.444;13.578;2023-07-20T05:17:10;10.77;;;10.00;;
22040;SDS011;11184;52.444;13.578;2023-07-20T05:19:54;11.75;;;10.80;;
22040;SDS011;11184;52.444;13.578;2023-07-20T05:22:39;10.32;;;9.30;;
22040;SDS011;11184;52.444;13.578;2023-07-20T05:25:24;9.23;;;8.32;;
22040;SDS011;11184;52.444;13.578;2023-07-20T05:28:09;9.05;;;8.25;;
22040;SDS011;11184;52.444;13.578;2023-07-20T05:30:53;11.45;;;10.27;;
22040;SDS011;11184;52.444;13.578;2023-07-20T05:33:38;8.65;;;7.88;;
22040;SDS011;11184;52.444;13.578;2023-07-20T05:36:23;8.30;;;7.60;;
22040;SDS011;11184;52.444;13.578;2023-07-20T05:39:08;11.05;;;8.60;;
22040;SDS011;11184;52.444;13.578;2023-07-20T05:41:53;7.88;;;7.38;;
22040;SDS011;11184;52.444;13.578;2023-07-20T05:44:37;9.45;;;8.65;;
22040;SDS011;11184;52.444;13.578;2023-07-20T05:47:22;8.57;;;7.72;;
22040;SDS011;11184;52.444;13.578;2023-07-20T05:50:08;8.95;;;8.20;;
22040;SDS011;11184;52.444;13.578;2023-07-20T05:52:53;8.25;;;7.40;;
22040;SDS011;11184;52.444;13.578;2023-07-20T05:55:37;9.98;;;6.75;;
22040;SDS011;11184;52.444;13.578;2023-07-20T05:58:23;8.35;;;7.70;;
22040;SDS011;11184;52.444;13.578;2023-07-20T06:01:08;6.70;;;6.07;;
22040;SDS011;11184;52.444;13.578;2023-07-20T06:03:52;7.55;;;5.30;;
22040;SDS011;11184;52.444;13.578;2023-07-20T06:06:37;8.88;;;5.25;;
22040;SDS011;11184;52.444;13.578;2023-07-20T06:09:22;5.20;;;4.70;;
22040;SDS011;11184;52.444;13.578;2023-07-20T06:12:07;6.45;;;5.53;;
22040;SDS011;11184;52.444;13.578;2023-07-20T06:14:52;5.30;;;4.50;;
22040;SDS011;11184;52.444;13.578;2023-07-20T06:17:37;4.95;;;4.53;;
22040;SDS011;11184;52.444;13.578;2023-07-20T06:20:22;3.97;;;3.58;;
22040;SDS011;11184;52.444;13.578;2023-07-20T06:23:07;5.38;;;4.45;;
22040;SDS011;11184;52.444;13.578;2023-07-20T06:25:51;4.10;;;3.78;;
22040;SDS011;11184;52.444;13.578;2023-07-20T06:28:36;3.70;;;3.40;;
22040;SDS011;11184;52.444;13.578;2023-07-20T06:31:20;6.30;;;3.35;;
22040;SDS011;11184;52.444;13.578;2023-07-20T06:34:05;2.92;;;2.72;;
22040;SDS011;11184;52.444;13.578;2023-07-20T06:36:50;3.88;;;3.53;;
22040;SDS011;11184;52.444;13.578;2023-07-20T06:39:34;4.13;;;3.38;;
22040;SDS011;11184;52.444;13.578;2023-07-20T06:42:19;3.58;;;3.25;;
22040;SDS011;11184;52.444;13.578;2023-07-20T06:45:04;4.60;;;4.18;;
22040;SDS011;11184;52.444;13.578;2023-07-20T06:47:49;4.93;;;4.43;;
22040;SDS011;11184;52.444;13.578;2023-07-20T06:50:34;4.85;;;4.45;;
22040;SDS011;11184;52.444;13.578;2023-07-20T06:53:28;5.82;;;5.07;;
22040;SDS011;11184;52.444;13.578;2023-07-20T06:56:16;7.28;;;5.88;;
22040;SDS011;11184;52.444;13.578;2023-07-20T06:59:00;10.43;;;5.80;;
22040;SDS011;11184;52.444;13.578;2023-07-20T07:01:46;6.22;;;5.43;;
22040;SDS011;11184;52.444;13.578;2023-07-20T07:04:31;5.57;;;5.13;;
22040;SDS011;11184;52.444;13.578;2023-07-20T07:07:16;5.85;;;5.35;;
22040;SDS011;11184;52.444;13.578;2023-07-20T07:10:01;5.25;;;4.85;;
22040;SDS011;11184;52.444;13.578;2023-07-20T07:12:48;3.85;;;3.45;;
22040;SDS011;11184;52.444;13.578;2023-07-20T07:15:33;3.70;;;2.60;;
22040;SDS011;11184;52.444;13.578;2023-07-20T07:18:18;2.95;;;2.75;;
22040;SDS011;11184;52.444;13.578;2023-07-20T07:21:03;3.78;;;1.83;;
22040;SDS011;11184;52.444;13.578;2023-07-20T07:23:48;2.95;;;1.92;;
22040;SDS011;11184;52.444;13.578;2023-07-20T07:26:33;3.30;;;2.22;;
22040;SDS011;11184;52.444;13.578;2023-07-20T07:29:17;6.93;;;3.15;;
22040;SDS011;11184;52.444;13.578;2023-07-20T07:32:02;6.90;;;2.33;;
22040;SDS011;11184;52.444;13.578;2023-07-20T07:34:46;1.77;;;1.58;;
22040;SDS011;11184;52.444;13.578;2023-07-20T07:37:32;1.88;;;1.30;;
22040;SDS011;11184;52.444;13.578;2023-07-20T07:40:16;2.80;;;1.17;;
22040;SDS011;11184;52.444;13.578;2023-07-20T07:43:01;5.60;;;1.38;;
22040;SDS011;11184;52.444;13.578;2023-07-20T07:45:47;1.98;;;1.20;;
22040;SDS011;11184;52.444;13.578;2023-07-20T07:48:31;5.13;;;1.33;;
22040;SDS011;11184;52.444;13.578;2023-07-20T07:51:16;1.33;;;1.10;;
22040;SDS011;11184;52.444;13.578;2023-07-20T07:54:00;1.70;;;1.00;;
22040;SDS011;11184;52.444;13.578;2023-07-20T07:56:45;4.97;;;1.65;;
22040;SDS011;11184;52.444;13.578;2023-07-20T07:59:29;3.67;;;1.85;;
22040;SDS011;11184;52.444;13.578;2023-07-20T08:02:19;2.38;;;1.08;;
22040;SDS011;11184;52.444;13.578;2023-07-20T08:05:05;7.25;;;1.50;;
22040;SDS011;11184;52.444;13.578;2023-07-20T08:07:50;2.20;;;1.13;;
22040;SDS011;11184;52.444;13.578;2023-07-20T08:10:34;1.95;;;1.17;;
22040;SDS011;11184;52.444;13.578;2023-07-20T08:13:19;2.33;;;1.13;;
22040;SDS011;11184;52.444;13.578;2023-07-20T08:16:04;7.50;;;1.23;;
22040;SDS011;11184;52.444;13.578;2023-07-20T08:18:48;1.85;;;0.93;;
22040;SDS011;11184;52.444;13.578;2023-07-20T08:21:33;4.05;;;0.93;;
22040;SDS011;11184;52.444;13.578;2023-07-20T08:24:17;1.00;;;0.60;;
22040;SDS011;11184;52.444;13.578;2023-07-20T08:27:02;1.10;;;1.00;;
22040;SDS011;11184;52.444;13.578;2023-07-20T08:29:47;1.38;;;0.60;;
22040;SDS011;11184;52.444;13.578;2023-07-20T08:32:32;1.95;;;0.52;;
22040;SDS011;11184;52.444;13.578;2023-07-20T08:35:17;1.63;;;0.93;;
22040;SDS011;11184;52.444;13.578;2023-07-20T08:38:02;3.55;;;1.20;;
22040;SDS011;11184;52.444;13.578;2023-07-20T08:40:48;1.42;;;0.63;;
22040;SDS011;11184;52.444;13.578;2023-07-20T08:43:34;0.45;;;0.35;;
22040;SDS011;11184;52.444;13.578;2023-07-20T08:46:21;0.63;;;0.40;;
22040;SDS011;11184;52.444;13.578;2023-07-20T08:49:06;0.95;;;0.50;;
22040;SDS011;11184;52.444;13.578;2023-07-20T08:51:51;1.10;;;0.68;;
22040;SDS011;11184;52.444;13.578;2023-07-20T08:54:36;0.95;;;0.70;;
22040;SDS011;11184;52.444;13.578;2023-07-20T08:57:21;1.95;;;0.95;;
22040;SDS011;11184;52.444;13.578;2023-07-20T09:00:06;0.75;;;0.40;;
22040;SDS011;11184;52.444;13.578;2023-07-20T09:02:56;1.67;;;0.77;;
22040;SDS011;11184;52.444;13.578;2023-07-20T09:05:41;1.20;;;0.40;;
22040;SDS011;11184;52.444;13.578;2023-07-20T09:08:27;0.95;;;0.32;;
22040;SDS011;11184;52.444;13.578;2023-07-20T09:11:12;0.73;;;0.40;;
22040;SDS011;11184;52.444;13.578;2023-07-20T09:14:06;4.57;;;0.52;;
22040;SDS011;11184;52.444;13.578;2023-07-20T09:16:55;0.55;;;0.40;;
22040;SDS011;11184;52.444;13.578;2023-07-20T09:19:45;2.85;;;0.40;;
22040;SDS011;11184;52.444;13.578;2023-07-20T09:22:30;2.30;;;0.50;;
22040;SDS011;11184;52.444;13.578;2023-07-20T09:25:15;0.80;;;0.50;;
22040;SDS011;11184;52.444;13.578;2023-07-20T09:28:02;0.57;;;0.50;;
22040;SDS011;11184;52.444;13.578;2023-07-20T09:30:48;1.05;;;0.43;;
22040;SDS011;11184;52.444;13.578;2023-07-20T09:33:32;3.03;;;0.55;;
22040;SDS011;11184;52.444;13.578;2023-07-20T09:36:17;1.40;;;0.40;;
22040;SDS011;11184;52.444;13.578;2023-07-20T09:39:02;0.73;;;0.30;;
22040;SDS011;11184;52.444;13.578;2023-07-20T09:41:47;1.17;;;0.65;;
22040;SDS011;11184;52.444;13.578;2023-07-20T09:44:32;0.98;;;0.30;;
22040;SDS011;11184;52.444;13.578;2023-07-20T09:47:23;2.75;;;0.70;;
22040;SDS011;11184;52.444;13.578;2023-07-20T09:50:08;0.93;;;0.35;;
22040;SDS011;11184;52.444;13.578;2023-07-20T09:52:56;1.92;;;0.50;;
22040;SDS011;11184;52.444;13.578;2023-07-20T09:55:41;1.10;;;0.50;;
22040;SDS011;11184;52.444;13.578;2023-07-20T09:58:26;1.45;;;0.30;;
22040;SDS011;11184;52.444;13.578;2023-07-20T10:01:11;3.13;;;1.02;;
22040;SDS011;11184;52.444;13.578;2023-07-20T10:03:58;2.05;;;0.50;;
22040;SDS011;11184;52.444;13.578;2023-07-20T10:06:45;0.40;;;0.28;;
22040;SDS011;11184;52.444;13.578;2023-07-20T10:09:31;0.90;;;0.40;;
22040;SDS011;11184;52.444;13.578;2023-07-20T10:12:17;1.70;;;0.40;;
22040;SDS011;11184;52.444;13.578;2023-07-20T10:18:07;0.30;;;0.22;;
22040;SDS011;11184;52.444;13.578;2023-07-20T10:20:54;2.25;;;0.35;;
22040;SDS011;11184;52.444;13.578;2023-07-20T10:23:39;0.63;;;0.60;;
22040;SDS011;11184;52.444;13.578;2023-07-20T10:26:23;0.57;;;0.38;;
22040;SDS011;11184;52.444;13.578;2023-07-20T10:29:08;0.57;;;0.40;;
22040;SDS011;11184;52.444;13.578;2023-07-20T10:31:54;2.55;;;0.50;;
22040;SDS011;11184;52.444;13.578;2023-07-20T10:34:39;4.43;;;0.68;;
22040;SDS011;11184;52.444;13.578;2023-07-20T10:40:38;1.95;;;0.32;;
22040;SDS011;11184;52.444;13.578;2023-07-20T10:43:23;0.88;;;0.55;;
22040;SDS011;11184;52.444;13.578;2023-07-20T10:46:10;1.98;;;0.50;;
22040;SDS011;11184;52.444;13.578;2023-07-20T10:49:02;0.82;;;0.57;;
22040;SDS011;11184;52.444;13.578;2023-07-20T10:51:49;2.00;;;1.20;;
22040;SDS011;11184;52.444;13.578;2023-07-20T10:54:46;0.60;;;0.50;;
22040;SDS011;11184;52.444;13.578;2023-07-20T10:57:32;1.98;;;0.90;;
22040;SDS011;11184;52.444;13.578;2023-07-20T11:00:18;2.35;;;0.75;;
22040;SDS011;11184;52.444;13.578;2023-07-20T11:03:06;1.55;;;0.55;;
22040;SDS011;11184;52.444;13.578;2023-07-20T11:05:51;0.80;;;0.60;;
22040;SDS011;11184;52.444;13.578;2023-07-20T11:08:39;2.35;;;0.73;;
22040;SDS011;11184;52.444;13.578;2023-07-20T11:11:28;2.83;;;0.47;;
22040;SDS011;11184;52.444;13.578;2023-07-20T11:14:20;1.45;;;0.50;;
22040;SDS011;11184;52.444;13.578;2023-07-20T11:17:12;2.00;;;0.65;;
22040;SDS011;11184;52.444;13.578;2023-07-20T11:19:57;0.75;;;0.40;;
22040;SDS011;11184;52.444;13.578;2023-07-20T11:22:42;1.30;;;0.40;;
22040;SDS011;11184;52.444;13.578;2023-07-20T11:25:35;1.05;;;0.50;;
22040;SDS011;11184;52.444;13.578;2023-07-20T11:28:20;2.75;;;0.70;;
22040;SDS011;11184;52.444;13.578;2023-07-20T11:31:04;1.45;;;0.60;;
22040;SDS011;11184;52.444;13.578;2023-07-20T11:33:49;1.23;;;0.43;;
22040;SDS011;11184;52.444;13.578;2023-07-20T11:36:34;2.22;;;0.88;;
22040;SDS011;11184;52.444;13.578;2023-07-20T11:39:19;2.88;;;0.30;;
22040;SDS011;11184;52.444;13.578;2023-07-20T11:42:04;1.00;;;0.40;;
22040;SDS011;11184;52.444;13.578;2023-07-20T11:44:51;2.92;;;0.50;;
22040;SDS011;11184;52.444;13.578;2023-07-20T11:47:39;2.80;;;0.40;;
22040;SDS011;11184;52.444;13.578;2023-07-20T11:50:25;1.48;;;0.30;;
22040;SDS011;11184;52.444;13.578;2023-07-20T11:53:10;1.17;;;0.55;;
22040;SDS011;11184;52.444;13.578;2023-07-20T11:55:55;2.40;;;0.65;;
22040;SDS011;11184;52.444;13.578;2023-07-20T11:58:43;0.75;;;0.47;;
22040;SDS011;11184;52.444;13.578;2023-07-20T12:01:29;0.88;;;0.60;;
22040;SDS011;11184;52.444;13.578;2023-07-20T12:04:15;1.25;;;0.40;;
22040;SDS011;11184;52.444;13.578;2023-07-20T12:07:00;0.55;;;0.50;;
22040;SDS011;11184;52.444;13.578;2023-07-20T12:10:02;3.90;;;0.50;;
22040;SDS011;11184;52.444;13.578;2023-07-20T12:12:47;1.05;;;0.57;;
22040;SDS011;11184;52.444;13.578;2023-07-20T12:15:31;2.72;;;0.40;;
22040;SDS011;11184;52.444;13.578;2023-07-20T12:18:16;1.30;;;0.60;;
22040;SDS011;11184;52.444;13.578;2023-07-20T12:21:00;0.75;;;0.40;;
22040;SDS011;11184;52.444;13.578;2023-07-20T12:23:45;1.95;;;0.65;;
22040;SDS011;11184;52.444;13.578;2023-07-20T12:26:30;0.45;;;0.20;;
22040;SDS011;11184;52.444;13.578;2023-07-20T12:29:15;0.30;;;0.20;;
22040;SDS011;11184;52.444;13.578;2023-07-20T12:32:00;1.23;;;0.20;;
22040;SDS011;11184;52.444;13.578;2023-07-20T12:34:44;1.77;;;0.50;;
22040;SDS011;11184;52.444;13.578;2023-07-20T12:37:29;6.50;;;0.65;;
22040;SDS011;11184;52.444;13.578;2023-07-20T12:40:13;2.20;;;0.30;;
22040;SDS011;11184;52.444;13.578;2023-07-20T12:42:58;2.78;;;0.47;;
22040;SDS011;11184;52.444;13.578;2023-07-20T12:45:42;1.33;;;0.68;;
22040;SDS011;11184;52.444;13.578;2023-07-20T12:48:27;0.68;;;0.60;;
22040;SDS011;11184;52.444;13.578;2023-07-20T12:51:12;0.70;;;0.38;;
22040;SDS011;11184;52.444;13.578;2023-07-20T12:53:56;0.30;;;0.30;;
22040;SDS011;11184;52.444;13.578;2023-07-20T12:56:41;1.90;;;0.47;;
22040;SDS011;11184;52.444;13.578;2023-07-20T12:59:25;1.70;;;0.30;;
22040;SDS011;11184;52.444;13.578;2023-07-20T13:02:10;0.63;;;0.35;;
22040;SDS011;11184;52.444;13.578;2023-07-20T13:04:54;1.08;;;0.60;;
22040;SDS011;11184;52.444;13.578;2023-07-20T13:07:40;1.00;;;0.52;;
22040;SDS011;11184;52.444;13.578;2023-07-20T13:10:25;1.27;;;0.50;;
22040;SDS011;11184;52.444;13.578;2023-07-20T13:13:10;2.83;;;0.60;;
22040;SDS011;11184;52.444;13.578;2023-07-20T13:15:55;0.40;;;0.30;;
22040;SDS011;11184;52.444;13.578;2023-07-20T13:18:39;1.73;;;0.70;;
22040;SDS011;11184;52.444;13.578;2023-07-20T13:21:24;0.70;;;0.30;;
22040;SDS011;11184;52.444;13.578;2023-07-20T13:24:08;0.52;;;0.30;;
22040;SDS011;11184;52.444;13.578;2023-07-20T13:26:53;1.58;;;0.40;;
22040;SDS011;11184;52.444;13.578;2023-07-20T13:29:38;0.85;;;0.20;;
22040;SDS011;11184;52.444;13.578;2023-07-20T13:32:22;0.25;;;0.20;;
22040;SDS011;11184;52.444;13.578;2023-07-20T13:35:07;3.53;;;0.38;;
22040;SDS011;11184;52.444;13.578;2023-07-20T13:37:52;1.00;;;0.30;;
22040;SDS011;11184;52.444;13.578;2023-07-20T13:40:36;0.80;;;0.40;;
22040;SDS011;11184;52.444;13.578;2023-07-20T13:43:21;1.00;;;0.25;;
22040;SDS011;11184;52.444;13.578;2023-07-20T13:46:05;1.35;;;0.50;;
22040;SDS011;11184;52.444;13.578;2023-07-20T13:48:50;0.47;;;0.30;;
22040;SDS011;11184;52.444;13.578;2023-07-20T13:51:35;0.60;;;0.40;;
22040;SDS011;11184;52.444;13.578;2023-07-20T13:54:20;2.20;;;0.43;;
22040;SDS011;11184;52.444;13.578;2023-07-20T13:57:04;1.50;;;0.40;;
22040;SDS011;11184;52.444;13.578;2023-07-20T13:59:49;1.88;;;0.52;;
22040;SDS011;11184;52.444;13.578;2023-07-20T14:02:34;1.85;;;0.45;;
22040;SDS011;11184;52.444;13.578;2023-07-20T14:05:20;0.98;;;0.32;;
22040;SDS011;11184;52.444;13.578;2023-07-20T14:08:04;0.88;;;0.47;;
22040;SDS011;11184;52.444;13.578;2023-07-20T14:10:49;1.23;;;0.52;;
22040;SDS011;11184;52.444;13.578;2023-07-20T14:13:34;5.32;;;0.40;;
22040;SDS011;11184;52.444;13.578;2023-07-20T14:16:19;0.88;;;0.30;;
22040;SDS011;11184;52.444;13.578;2023-07-20T14:19:04;1.90;;;0.32;;
22040;SDS011;11184;52.444;13.578;2023-07-20T14:21:49;2.30;;;0.60;;
22040;SDS011;11184;52.444;13.578;2023-07-20T14:24:33;0.68;;;0.30;;
22040;SDS011;11184;52.444;13.578;2023-07-20T14:27:18;1.83;;;0.40;;
22040;SDS011;11184;52.444;13.578;2023-07-20T14:30:03;1.27;;;0.40;;
22040;SDS011;11184;52.444;13.578;2023-07-20T14:32:48;1.27;;;0.60;;
22040;SDS011;11184;52.444;13.578;2023-07-20T14:35:33;0.55;;;0.30;;
22040;SDS011;11184;52.444;13.578;2023-07-20T14:38:18;1.20;;;0.40;;
22040;SDS011;11184;52.444;13.578;2023-07-20T14:41:03;1.20;;;0.47;;
22040;SDS011;11184;52.444;13.578;2023-07-20T14:43:49;1.90;;;0.30;;
22040;SDS011;11184;52.444;13.578;2023-07-20T14:46:33;1.27;;;0.30;;
22040;SDS011;11184;52.444;13.578;2023-07-20T14:49:18;0.75;;;0.20;;
22040;SDS011;11184;52.444;13.578;2023-07-20T14:52:03;3.47;;;0.30;;
22040;SDS011;11184;52.444;13.578;2023-07-20T14:54:48;0.32;;;0.30;;
22040;SDS011;11184;52.444;13.578;2023-07-20T14:57:32;0.40;;;0.30;;
22040;SDS011;11184;52.444;13.578;2023-07-20T15:00:17;4.20;;;1.10;;
22040;SDS011;11184;52.444;13.578;2023-07-20T15:03:02;3.00;;;0.75;;
22040;SDS011;11184;52.444;13.578;2023-07-20T15:05:48;0.88;;;0.30;;
22040;SDS011;11184;52.444;13.578;2023-07-20T15:08:34;1.50;;;0.50;;
22040;SDS011;11184;52.444;13.578;2023-07-20T15:11:19;1.70;;;0.30;;
22040;SDS011;11184;52.444;13.578;2023-07-20T15:14:03;2.58;;;0.30;;
22040;SDS011;11184;52.444;13.578;2023-07-20T15:16:48;0.80;;;0.40;;
22040;SDS011;11184;52.444;13.578;2023-07-20T15:19:33;1.48;;;0.50;;
22040;SDS011;11184;52.444;13.578;2023-07-20T15:22:19;2.35;;;0.45;;
22040;SDS011;11184;52.444;13.578;2023-07-20T15:25:05;1.05;;;0.47;;
22040;SDS011;11184;52.444;13.578;2023-07-20T15:27:50;0.93;;;0.30;;
22040;SDS011;11184;52.444;13.578;2023-07-20T15:30:34;0.77;;;0.20;;
22040;SDS011;11184;52.444;13.578;2023-07-20T15:33:20;0.90;;;0.35;;
22040;SDS011;11184;52.444;13.578;2023-07-20T15:36:04;1.15;;;0.30;;
22040;SDS011;11184;52.444;13.578;2023-07-20T15:38:50;0.75;;;0.40;;
22040;SDS011;11184;52.444;13.578;2023-07-20T15:41:35;1.60;;;0.40;;
22040;SDS011;11184;52.444;13.578;2023-07-20T15:44:19;2.38;;;0.30;;
22040;SDS011;11184;52.444;13.578;2023-07-20T15:47:04;1.38;;;0.60;;
22040;SDS011;11184;52.444;13.578;2023-07-20T15:49:50;0.85;;;0.60;;
22040;SDS011;11184;52.444;13.578;2023-07-20T15:52:34;0.98;;;0.55;;
22040;SDS011;11184;52.444;13.578;2023-07-20T15:55:19;2.30;;;0.80;;
22040;SDS011;11184;52.444;13.578;2023-07-20T15:58:04;1.05;;;0.57;;
22040;SDS011;11184;52.444;13.578;2023-07-20T16:00:52;7.15;;;3.75;;
22040;SDS011;11184;52.444;13.578;2023-07-20T16:03:38;1.00;;;0.50;;
22040;SDS011;11184;52.444;13.578;2023-07-20T16:06:23;1.55;;;0.93;;
22040;SDS011;11184;52.444;13.578;2023-07-20T16:09:07;2.05;;;1.02;;
22040;SDS011;11184;52.444;13.578;2023-07-20T16:11:52;1.20;;;0.50;;
22040;SDS011;11184;52.444;13.578;2023-07-20T16:14:37;1.45;;;0.45;;
22040;SDS011;11184;52.444;13.578;2023-07-20T16:17:21;1.10;;;0.40;;
22040;SDS011;11184;52.444;13.578;2023-07-20T16:20:06;1.83;;;0.75;;
22040;SDS011;11184;52.444;13.578;2023-07-20T16:22:51;1.63;;;0.40;;
22040;SDS011;11184;52.444;13.578;2023-07-20T16:25:35;1.88;;;0.50;;
22040;SDS011;11184;52.444;13.578;2023-07-20T16:28:20;4.00;;;0.65;;
22040;SDS011;11184;52.444;13.578;2023-07-20T16:33:55;1.40;;;0.60;;